sensor_id;sensor_type;location;lat;lon;timestamp;P1;durP1;ratioP1;P2;durP2;ratioP2
3133;SDS011;1577;49.912;10.924;2023-03-01T00:02:18;81.47;;;15.82;;
3133;SDS011;1577;49.912;10.924;2023-03-01T00:04:45;84.65;;;15.88;;
3133;SDS011;1577;49.912;10.924;2023-03-01T00:07:11;82.60;;;15.73;;
3133;SDS011;1577;49.912;10.924;2023-03-01T00:09:37;84.18;;;15.10;;
3133;SDS011;1577;49.912;10.924;2023-03-01T00:12:03;82.38;;;15.27;;
3133;SDS011;1577;49.912;10.924;2023-03-01T00:14:29;80.90;;;13.65;;
3133;SDS011;1577;49.912;10.924;2023-03-01T00:16:55;83.43;;;14.95;;
3133;SDS011;1577;49.912;10.924;2023-03-01T00:19:21;83.97;;;15.00;;
3133;SDS011;1577;49.912;10.924;2023-03-01T00:21:47;83.75;;;13.80;;
3133;SDS011;1577;49.912;10.924;2023-03-01T00:24:13;82.15;;;15.23;;
3133;SDS011;1577;49.912;10.924;2023-03-01T00:26:39;81.13;;;14.02;;
3133;SDS011;1577;49.912;10.924;2023-03-01T00:29:06;80.15;;;13.40;;
3133;SDS011;1577;49.912;10.924;2023-03-01T00:31:32;82.20;;;14.47;;
3133;SDS011;1577;49.912;10.924;2023-03-01T00:33:59;80.85;;;14.20;;
3133;SDS011;1577;49.912;10.924;2023-03-01T00:36:27;82.70;;;14.07;;
3133;SDS011;1577;49.912;10.924;2023-03-01T00:38:53;80.53;;;14.48;;
3133;SDS011;1577;49.912;10.924;2023-03-01T00:41:20;84.57;;;15.55;;
3133;SDS011;1577;49.912;10.924;2023-03-01T00:43:47;81.53;;;14.50;;
3133;SDS011;1577;49.912;10.924;2023-03-01T00:46:15;84.25;;;15.18;;
3133;SDS011;1577;49.912;10.924;2023-03-01T00:48:41;85.47;;;15.80;;
3133;SDS011;1577;49.912;10.924;2023-03-01T00:51:08;83.28;;;15.55;;
3133;SDS011;1577;49.912;10.924;2023-03-01T00:53:34;80.38;;;13.93;;
3133;SDS011;1577;49.912;10.924;2023-03-01T00:56:01;81.97;;;15.07;;
3133;SDS011;1577;49.912;10.924;2023-03-01T00:58:27;83.53;;;14.30;;
3133;SDS011;1577;49.912;10.924;2023-03-01T01:00:53;85.25;;;14.98;;
3133;SDS011;1577;49.912;10.924;2023-03-01T01:03:19;87.40;;;16.47;;
3133;SDS011;1577;49.912;10.924;2023-03-01T01:05:45;86.37;;;14.93;;
3133;SDS011;1577;49.912;10.924;2023-03-01T01:08:11;79.77;;;13.57;;
3133;SDS011;1577;49.912;10.924;2023-03-01T01:10:37;85.87;;;14.80;;
3133;SDS011;1577;49.912;10.924;2023-03-01T01:13:03;85.83;;;15.13;;
3133;SDS011;1577;49.912;10.924;2023-03-01T01:15:33;82.63;;;15.35;;
3133;SDS011;1577;49.912;10.924;2023-03-01T01:17:59;84.07;;;14.52;;
3133;SDS011;1577;49.912;10.924;2023-03-01T01:20:25;83.70;;;16.02;;
3133;SDS011;1577;49.912;10.924;2023-03-01T01:22:51;81.55;;;14.27;;
3133;SDS011;1577;49.912;10.924;2023-03-01T01:25:18;84.72;;;16.60;;
3133;SDS011;1577;49.912;10.924;2023-03-01T01:27:44;83.28;;;16.48;;
3133;SDS011;1577;49.912;10.924;2023-03-01T01:30:10;80.07;;;13.60;;
3133;SDS011;1577;49.912;10.924;2023-03-01T01:32:36;82.80;;;13.93;;
3133;SDS011;1577;49.912;10.924;2023-03-01T01:35:02;81.93;;;15.45;;
3133;SDS011;1577;49.912;10.924;2023-03-01T01:37:28;83.32;;;13.73;;
3133;SDS011;1577;49.912;10.924;2023-03-01T01:39:59;84.88;;;15.10;;
3133;SDS011;1577;49.912;10.924;2023-03-01T01:42:25;81.53;;;14.10;;
3133;SDS011;1577;49.912;10.924;2023-03-01T01:47:36;80.63;;;12.88;;
3133;SDS011;1577;49.912;10.924;2023-03-01T01:50:02;81.30;;;14.45;;
3133;SDS011;1577;49.912;10.924;2023-03-01T01:52:34;83.90;;;15.40;;
3133;SDS011;1577;49.912;10.924;2023-03-01T01:55:02;85.80;;;16.00;;
3133;SDS011;1577;49.912;10.924;2023-03-01T01:57:30;79.57;;;13.30;;
3133;SDS011;1577;49.912;10.924;2023-03-01T01:59:59;85.47;;;12.77;;
3133;SDS011;1577;49.912;10.924;2023-03-01T02:02:25;81.82;;;14.70;;
3133;SDS011;1577;49.912;10.924;2023-03-01T02:04:52;79.88;;;14.18;;
3133;SDS011;1577;49.912;10.924;2023-03-01T02:07:21;79.60;;;12.60;;
3133;SDS011;1577;49.912;10.924;2023-03-01T02:09:48;81.20;;;14.55;;
3133;SDS011;1577;49.912;10.924;2023-03-01T02:12:15;80.80;;;13.20;;
3133;SDS011;1577;49.912;10.924;2023-03-01T02:14:42;77.68;;;13.07;;
3133;SDS011;1577;49.912;10.924;2023-03-01T02:17:09;82.93;;;13.55;;
3133;SDS011;1577;49.912;10.924;2023-03-01T02:24:45;76.70;;;12.57;;
3133;SDS011;1577;49.912;10.924;2023-03-01T02:27:14;79.60;;;13.77;;
3133;SDS011;1577;49.912;10.924;2023-03-01T02:29:41;84.75;;;14.85;;
3133;SDS011;1577;49.912;10.924;2023-03-01T02:32:08;81.00;;;15.45;;
3133;SDS011;1577;49.912;10.924;2023-03-01T02:34:35;81.57;;;14.48;;
3133;SDS011;1577;49.912;10.924;2023-03-01T02:37:03;80.95;;;14.00;;
3133;SDS011;1577;49.912;10.924;2023-03-01T02:39:34;83.35;;;13.32;;
3133;SDS011;1577;49.912;10.924;2023-03-01T02:42:03;82.78;;;15.38;;
3133;SDS011;1577;49.912;10.924;2023-03-01T02:44:30;84.43;;;14.35;;
3133;SDS011;1577;49.912;10.924;2023-03-01T02:46:56;84.30;;;15.23;;
3133;SDS011;1577;49.912;10.924;2023-03-01T02:49:26;82.75;;;13.52;;
3133;SDS011;1577;49.912;10.924;2023-03-01T02:57:03;81.80;;;13.67;;
3133;SDS011;1577;49.912;10.924;2023-03-01T02:59:31;92.20;;;14.15;;
3133;SDS011;1577;49.912;10.924;2023-03-01T03:02:04;83.60;;;15.13;;
3133;SDS011;1577;49.912;10.924;2023-03-01T03:04:30;81.43;;;13.20;;
3133;SDS011;1577;49.912;10.924;2023-03-01T03:06:56;80.97;;;14.80;;
3133;SDS011;1577;49.912;10.924;2023-03-01T03:09:22;79.43;;;14.50;;
3133;SDS011;1577;49.912;10.924;2023-03-01T03:11:48;83.60;;;15.52;;
3133;SDS011;1577;49.912;10.924;2023-03-01T03:14:15;83.65;;;15.20;;
3133;SDS011;1577;49.912;10.924;2023-03-01T03:16:45;81.65;;;14.30;;
3133;SDS011;1577;49.912;10.924;2023-03-01T03:19:12;81.85;;;13.77;;
3133;SDS011;1577;49.912;10.924;2023-03-01T03:21:38;79.78;;;13.68;;
3133;SDS011;1577;49.912;10.924;2023-03-01T03:24:04;79.35;;;12.40;;
3133;SDS011;1577;49.912;10.924;2023-03-01T03:26:30;81.80;;;13.18;;
3133;SDS011;1577;49.912;10.924;2023-03-01T03:28:56;82.65;;;14.43;;
3133;SDS011;1577;49.912;10.924;2023-03-01T03:31:22;81.60;;;13.25;;
3133;SDS011;1577;49.912;10.924;2023-03-01T03:33:49;82.75;;;14.90;;
3133;SDS011;1577;49.912;10.924;2023-03-01T03:36:18;84.55;;;15.45;;
3133;SDS011;1577;49.912;10.924;2023-03-01T03:38:45;82.10;;;14.90;;
3133;SDS011;1577;49.912;10.924;2023-03-01T03:41:11;80.15;;;13.40;;
3133;SDS011;1577;49.912;10.924;2023-03-01T03:43:38;85.85;;;15.68;;
3133;SDS011;1577;49.912;10.924;2023-03-01T03:46:04;81.13;;;13.57;;
3133;SDS011;1577;49.912;10.924;2023-03-01T03:48:32;85.60;;;14.60;;
3133;SDS011;1577;49.912;10.924;2023-03-01T03:50:58;83.15;;;15.00;;
3133;SDS011;1577;49.912;10.924;2023-03-01T03:53:25;86.20;;;15.17;;
3133;SDS011;1577;49.912;10.924;2023-03-01T03:55:51;81.60;;;13.85;;
3133;SDS011;1577;49.912;10.924;2023-03-01T03:58:18;82.22;;;14.95;;
3133;SDS011;1577;49.912;10.924;2023-03-01T04:00:45;81.75;;;13.27;;
3133;SDS011;1577;49.912;10.924;2023-03-01T04:03:12;82.43;;;14.60;;
3133;SDS011;1577;49.912;10.924;2023-03-01T04:05:39;85.20;;;15.10;;
3133;SDS011;1577;49.912;10.924;2023-03-01T04:08:05;83.80;;;14.73;;
3133;SDS011;1577;49.912;10.924;2023-03-01T04:13:08;82.78;;;14.35;;
3133;SDS011;1577;49.912;10.924;2023-03-01T04:15:35;80.88;;;14.35;;
3133;SDS011;1577;49.912;10.924;2023-03-01T04:18:01;85.00;;;15.30;;
3133;SDS011;1577;49.912;10.924;2023-03-01T04:20:29;81.28;;;14.13;;
3133;SDS011;1577;49.912;10.924;2023-03-01T04:22:59;86.18;;;14.63;;
3133;SDS011;1577;49.912;10.924;2023-03-01T04:25:35;84.38;;;15.63;;
3133;SDS011;1577;49.912;10.924;2023-03-01T04:28:01;83.90;;;14.57;;
3133;SDS011;1577;49.912;10.924;2023-03-01T04:30:27;87.00;;;15.67;;
3133;SDS011;1577;49.912;10.924;2023-03-01T04:32:53;84.63;;;14.23;;
3133;SDS011;1577;49.912;10.924;2023-03-01T04:35:19;84.10;;;17.73;;
3133;SDS011;1577;49.912;10.924;2023-03-01T04:37:45;83.47;;;15.07;;
3133;SDS011;1577;49.912;10.924;2023-03-01T04:40:11;83.57;;;15.83;;
3133;SDS011;1577;49.912;10.924;2023-03-01T04:42:41;86.15;;;15.85;;
3133;SDS011;1577;49.912;10.924;2023-03-01T04:45:07;85.25;;;16.85;;
3133;SDS011;1577;49.912;10.924;2023-03-01T04:47:38;92.07;;;17.17;;
3133;SDS011;1577;49.912;10.924;2023-03-01T04:50:04;86.07;;;17.35;;
3133;SDS011;1577;49.912;10.924;2023-03-01T04:52:30;87.18;;;17.38;;
3133;SDS011;1577;49.912;10.924;2023-03-01T04:54:56;85.65;;;16.08;;
3133;SDS011;1577;49.912;10.924;2023-03-01T04:57:22;90.65;;;16.80;;
3133;SDS011;1577;49.912;10.924;2023-03-01T04:59:48;87.80;;;17.10;;
3133;SDS011;1577;49.912;10.924;2023-03-01T05:02:14;86.97;;;17.00;;
3133;SDS011;1577;49.912;10.924;2023-03-01T05:04:40;90.60;;;17.00;;
3133;SDS011;1577;49.912;10.924;2023-03-01T05:07:06;84.93;;;16.17;;
3133;SDS011;1577;49.912;10.924;2023-03-01T05:09:32;85.00;;;16.07;;
3133;SDS011;1577;49.912;10.924;2023-03-01T05:11:58;86.75;;;17.08;;
3133;SDS011;1577;49.912;10.924;2023-03-01T05:14:24;89.73;;;16.10;;
3133;SDS011;1577;49.912;10.924;2023-03-01T05:16:50;86.38;;;17.00;;
3133;SDS011;1577;49.912;10.924;2023-03-01T05:19:16;83.77;;;15.80;;
3133;SDS011;1577;49.912;10.924;2023-03-01T05:21:47;88.88;;;17.98;;
3133;SDS011;1577;49.912;10.924;2023-03-01T05:24:29;85.22;;;15.77;;
3133;SDS011;1577;49.912;10.924;2023-03-01T05:26:55;89.40;;;16.17;;
3133;SDS011;1577;49.912;10.924;2023-03-01T05:29:22;84.07;;;15.60;;
3133;SDS011;1577;49.912;10.924;2023-03-01T05:32:00;84.70;;;17.13;;
3133;SDS011;1577;49.912;10.924;2023-03-01T05:34:31;89.25;;;17.02;;
3133;SDS011;1577;49.912;10.924;2023-03-01T05:36:58;90.85;;;18.52;;
3133;SDS011;1577;49.912;10.924;2023-03-01T05:39:24;93.13;;;18.10;;
3133;SDS011;1577;49.912;10.924;2023-03-01T05:41:58;88.10;;;17.85;;
3133;SDS011;1577;49.912;10.924;2023-03-01T05:44:24;88.85;;;17.55;;
3133;SDS011;1577;49.912;10.924;2023-03-01T05:46:51;92.10;;;18.45;;
3133;SDS011;1577;49.912;10.924;2023-03-01T05:49:17;91.65;;;18.48;;
3133;SDS011;1577;49.912;10.924;2023-03-01T05:51:47;87.88;;;17.70;;
3133;SDS011;1577;49.912;10.924;2023-03-01T05:54:13;93.97;;;19.45;;
3133;SDS011;1577;49.912;10.924;2023-03-01T05:56:39;93.05;;;19.90;;
3133;SDS011;1577;49.912;10.924;2023-03-01T05:59:05;88.47;;;18.50;;
3133;SDS011;1577;49.912;10.924;2023-03-01T06:01:32;92.30;;;20.13;;
3133;SDS011;1577;49.912;10.924;2023-03-01T06:03:58;88.30;;;18.40;;
3133;SDS011;1577;49.912;10.924;2023-03-01T06:06:24;91.45;;;19.52;;
3133;SDS011;1577;49.912;10.924;2023-03-01T06:08:51;93.03;;;21.05;;
3133;SDS011;1577;49.912;10.924;2023-03-01T06:11:17;96.85;;;24.08;;
3133;SDS011;1577;49.912;10.924;2023-03-01T06:13:43;93.07;;;19.50;;
3133;SDS011;1577;49.912;10.924;2023-03-01T06:16:10;103.90;;;25.77;;
3133;SDS011;1577;49.912;10.924;2023-03-01T06:18:37;97.95;;;23.45;;
3133;SDS011;1577;49.912;10.924;2023-03-01T06:21:03;95.75;;;20.75;;
3133;SDS011;1577;49.912;10.924;2023-03-01T06:23:29;93.63;;;21.80;;
3133;SDS011;1577;49.912;10.924;2023-03-01T06:25:55;92.13;;;18.95;;
3133;SDS011;1577;49.912;10.924;2023-03-01T06:28:21;88.27;;;17.70;;
3133;SDS011;1577;49.912;10.924;2023-03-01T06:30:48;91.97;;;19.23;;
3133;SDS011;1577;49.912;10.924;2023-03-01T06:33:14;90.35;;;17.65;;
3133;SDS011;1577;49.912;10.924;2023-03-01T06:35:40;95.03;;;19.15;;
3133;SDS011;1577;49.912;10.924;2023-03-01T06:38:06;92.80;;;19.27;;
3133;SDS011;1577;49.912;10.924;2023-03-01T06:40:32;90.97;;;18.63;;
3133;SDS011;1577;49.912;10.924;2023-03-01T06:43:00;96.28;;;21.70;;
3133;SDS011;1577;49.912;10.924;2023-03-01T06:45:26;90.85;;;19.33;;
3133;SDS011;1577;49.912;10.924;2023-03-01T06:48:02;92.78;;;20.58;;
3133;SDS011;1577;49.912;10.924;2023-03-01T06:50:28;92.72;;;17.88;;
3133;SDS011;1577;49.912;10.924;2023-03-01T06:52:57;90.70;;;19.97;;
3133;SDS011;1577;49.912;10.924;2023-03-01T06:55:23;94.80;;;20.80;;
3133;SDS011;1577;49.912;10.924;2023-03-01T06:57:53;89.10;;;18.35;;
3133;SDS011;1577;49.912;10.924;2023-03-01T07:00:23;91.57;;;19.25;;
3133;SDS011;1577;49.912;10.924;2023-03-01T07:02:49;92.72;;;19.85;;
3133;SDS011;1577;49.912;10.924;2023-03-01T07:05:15;88.50;;;18.88;;
3133;SDS011;1577;49.912;10.924;2023-03-01T07:07:41;89.65;;;18.17;;
3133;SDS011;1577;49.912;10.924;2023-03-01T07:10:07;88.53;;;17.80;;
3133;SDS011;1577;49.912;10.924;2023-03-01T07:12:33;89.18;;;18.38;;
3133;SDS011;1577;49.912;10.924;2023-03-01T07:14:59;89.40;;;17.93;;
3133;SDS011;1577;49.912;10.924;2023-03-01T07:17:25;88.40;;;18.10;;
3133;SDS011;1577;49.912;10.924;2023-03-01T07:19:51;89.27;;;18.97;;
3133;SDS011;1577;49.912;10.924;2023-03-01T07:22:17;86.70;;;18.33;;
3133;SDS011;1577;49.912;10.924;2023-03-01T07:24:46;100.60;;;18.95;;
3133;SDS011;1577;49.912;10.924;2023-03-01T07:27:12;89.00;;;18.03;;
3133;SDS011;1577;49.912;10.924;2023-03-01T07:29:38;87.37;;;16.73;;
3133;SDS011;1577;49.912;10.924;2023-03-01T07:32:04;97.77;;;17.20;;
3133;SDS011;1577;49.912;10.924;2023-03-01T07:34:32;87.00;;;15.80;;
3133;SDS011;1577;49.912;10.924;2023-03-01T07:36:57;85.20;;;15.77;;
3133;SDS011;1577;49.912;10.924;2023-03-01T07:39:26;81.80;;;14.60;;
3133;SDS011;1577;49.912;10.924;2023-03-01T07:41:52;81.27;;;13.90;;
3133;SDS011;1577;49.912;10.924;2023-03-01T07:44:21;81.00;;;14.20;;
3133;SDS011;1577;49.912;10.924;2023-03-01T07:46:47;79.30;;;17.27;;
3133;SDS011;1577;49.912;10.924;2023-03-01T07:49:12;76.47;;;14.93;;
3133;SDS011;1577;49.912;10.924;2023-03-01T07:51:38;77.97;;;14.97;;
3133;SDS011;1577;49.912;10.924;2023-03-01T07:54:03;80.00;;;15.60;;
3133;SDS011;1577;49.912;10.924;2023-03-01T07:56:29;76.07;;;13.07;;
3133;SDS011;1577;49.912;10.924;2023-03-01T07:58:55;79.90;;;15.67;;
3133;SDS011;1577;49.912;10.924;2023-03-01T08:01:20;79.77;;;14.03;;
3133;SDS011;1577;49.912;10.924;2023-03-01T08:03:47;77.80;;;12.73;;
3133;SDS011;1577;49.912;10.924;2023-03-01T08:06:14;75.60;;;12.23;;
3133;SDS011;1577;49.912;10.924;2023-03-01T08:08:41;81.23;;;13.67;;
3133;SDS011;1577;49.912;10.924;2023-03-01T08:11:07;76.93;;;15.17;;
3133;SDS011;1577;49.912;10.924;2023-03-01T08:13:34;79.03;;;17.33;;
3133;SDS011;1577;49.912;10.924;2023-03-01T08:16:06;81.10;;;14.20;;
3133;SDS011;1577;49.912;10.924;2023-03-01T08:18:34;80.30;;;14.93;;
3133;SDS011;1577;49.912;10.924;2023-03-01T08:21:04;76.80;;;13.63;;
3133;SDS011;1577;49.912;10.924;2023-03-01T08:23:31;78.27;;;13.30;;
3133;SDS011;1577;49.912;10.924;2023-03-01T08:26:04;83.10;;;13.30;;
3133;SDS011;1577;49.912;10.924;2023-03-01T08:28:41;76.20;;;13.37;;
3133;SDS011;1577;49.912;10.924;2023-03-01T08:31:17;75.47;;;12.70;;
3133;SDS011;1577;49.912;10.924;2023-03-01T08:33:43;77.90;;;14.50;;
3133;SDS011;1577;49.912;10.924;2023-03-01T08:36:09;79.87;;;13.80;;
3133;SDS011;1577;49.912;10.924;2023-03-01T08:38:35;77.10;;;12.90;;
3133;SDS011;1577;49.912;10.924;2023-03-01T08:41:01;77.10;;;13.77;;
3133;SDS011;1577;49.912;10.924;2023-03-01T08:43:28;80.17;;;17.33;;
3133;SDS011;1577;49.912;10.924;2023-03-01T08:45:54;84.73;;;18.77;;
3133;SDS011;1577;49.912;10.924;2023-03-01T08:48:20;79.70;;;20.70;;
3133;SDS011;1577;49.912;10.924;2023-03-01T08:50:46;74.57;;;13.83;;
3133;SDS011;1577;49.912;10.924;2023-03-01T08:53:11;74.60;;;14.70;;
3133;SDS011;1577;49.912;10.924;2023-03-01T08:55:37;74.60;;;16.73;;
3133;SDS011;1577;49.912;10.924;2023-03-01T08:58:02;72.90;;;16.07;;
3133;SDS011;1577;49.912;10.924;2023-03-01T09:00:28;71.17;;;15.03;;
3133;SDS011;1577;49.912;10.924;2023-03-01T09:02:54;74.77;;;13.47;;
3133;SDS011;1577;49.912;10.924;2023-03-01T09:05:19;74.67;;;14.77;;
3133;SDS011;1577;49.912;10.924;2023-03-01T09:07:45;77.87;;;17.73;;
3133;SDS011;1577;49.912;10.924;2023-03-01T09:10:10;76.40;;;13.77;;
3133;SDS011;1577;49.912;10.924;2023-03-01T09:12:36;78.93;;;12.90;;
3133;SDS011;1577;49.912;10.924;2023-03-01T09:15:02;77.17;;;13.20;;
3133;SDS011;1577;49.912;10.924;2023-03-01T09:17:28;77.70;;;13.60;;
3133;SDS011;1577;49.912;10.924;2023-03-01T09:19:57;76.70;;;13.10;;
3133;SDS011;1577;49.912;10.924;2023-03-01T09:22:22;76.90;;;11.97;;
3133;SDS011;1577;49.912;10.924;2023-03-01T09:24:48;79.90;;;13.10;;
3133;SDS011;1577;49.912;10.924;2023-03-01T09:27:13;77.97;;;11.43;;
3133;SDS011;1577;49.912;10.924;2023-03-01T09:29:39;75.10;;;11.93;;
3133;SDS011;1577;49.912;10.924;2023-03-01T09:32:05;77.97;;;14.10;;
3133;SDS011;1577;49.912;10.924;2023-03-01T09:34:32;77.90;;;12.40;;
3133;SDS011;1577;49.912;10.924;2023-03-01T09:37:18;78.03;;;13.57;;
3133;SDS011;1577;49.912;10.924;2023-03-01T09:39:44;77.50;;;14.87;;
3133;SDS011;1577;49.912;10.924;2023-03-01T09:42:11;80.00;;;12.83;;
3133;SDS011;1577;49.912;10.924;2023-03-01T09:44:42;77.00;;;13.70;;
3133;SDS011;1577;49.912;10.924;2023-03-01T09:47:16;77.23;;;12.30;;
3133;SDS011;1577;49.912;10.924;2023-03-01T09:49:44;73.67;;;12.80;;
3133;SDS011;1577;49.912;10.924;2023-03-01T09:54:53;76.30;;;11.57;;
3133;SDS011;1577;49.912;10.924;2023-03-01T09:57:28;75.80;;;13.03;;
3133;SDS011;1577;49.912;10.924;2023-03-01T10:05:40;82.70;;;15.03;;
3133;SDS011;1577;49.912;10.924;2023-03-01T10:10:56;83.77;;;15.50;;
3133;SDS011;1577;49.912;10.924;2023-03-01T10:19:14;83.47;;;14.70;;
3133;SDS011;1577;49.912;10.924;2023-03-01T10:21:48;82.27;;;14.60;;
3133;SDS011;1577;49.912;10.924;2023-03-01T10:24:16;82.97;;;14.40;;
3133;SDS011;1577;49.912;10.924;2023-03-01T10:26:56;84.20;;;15.60;;
3133;SDS011;1577;49.912;10.924;2023-03-01T10:29:26;79.90;;;12.97;;
3133;SDS011;1577;49.912;10.924;2023-03-01T10:32:08;81.17;;;15.30;;
3133;SDS011;1577;49.912;10.924;2023-03-01T10:34:35;80.30;;;13.67;;
3133;SDS011;1577;49.912;10.924;2023-03-01T10:37:22;82.70;;;14.80;;
3133;SDS011;1577;49.912;10.924;2023-03-01T10:42:38;82.60;;;13.93;;
3133;SDS011;1577;49.912;10.924;2023-03-01T10:48:10;81.60;;;14.23;;
3133;SDS011;1577;49.912;10.924;2023-03-01T10:50:37;88.37;;;17.63;;
3133;SDS011;1577;49.912;10.924;2023-03-01T10:53:04;80.33;;;14.07;;
3133;SDS011;1577;49.912;10.924;2023-03-01T10:55:41;80.33;;;14.40;;
3133;SDS011;1577;49.912;10.924;2023-03-01T11:00:32;82.10;;;14.30;;
3133;SDS011;1577;49.912;10.924;2023-03-01T11:05:24;82.00;;;15.97;;
3133;SDS011;1577;49.912;10.924;2023-03-01T11:07:54;88.57;;;15.80;;
3133;SDS011;1577;49.912;10.924;2023-03-01T11:12:47;83.03;;;14.30;;
3133;SDS011;1577;49.912;10.924;2023-03-01T11:15:20;83.47;;;16.63;;
3133;SDS011;1577;49.912;10.924;2023-03-01T11:17:49;85.63;;;16.10;;
3133;SDS011;1577;49.912;10.924;2023-03-01T11:22:49;80.93;;;14.50;;
3133;SDS011;1577;49.912;10.924;2023-03-01T11:25:31;82.00;;;15.40;;
3133;SDS011;1577;49.912;10.924;2023-03-01T11:28:02;81.07;;;13.90;;
3133;SDS011;1577;49.912;10.924;2023-03-01T11:30:39;77.90;;;12.10;;
3133;SDS011;1577;49.912;10.924;2023-03-01T11:33:19;76.53;;;10.80;;
3133;SDS011;1577;49.912;10.924;2023-03-01T11:39:03;83.03;;;15.50;;
3133;SDS011;1577;49.912;10.924;2023-03-01T11:41:46;81.33;;;13.53;;
3133;SDS011;1577;49.912;10.924;2023-03-01T11:44:22;79.70;;;11.40;;
3133;SDS011;1577;49.912;10.924;2023-03-01T12:09:07;77.33;;;11.77;;
3133;SDS011;1577;49.912;10.924;2023-03-01T12:11:54;81.37;;;13.67;;
3133;SDS011;1577;49.912;10.924;2023-03-01T12:20:29;76.27;;;11.77;;
3133;SDS011;1577;49.912;10.924;2023-03-01T12:23:32;78.57;;;12.13;;
3133;SDS011;1577;49.912;10.924;2023-03-01T12:36:58;82.97;;;14.47;;
3133;SDS011;1577;49.912;10.924;2023-03-01T12:39:53;83.67;;;12.97;;
3133;SDS011;1577;49.912;10.924;2023-03-01T12:45:25;80.97;;;13.03;;
3133;SDS011;1577;49.912;10.924;2023-03-01T12:50:46;79.67;;;12.30;;
3133;SDS011;1577;49.912;10.924;2023-03-01T12:53:19;83.63;;;14.20;;
3133;SDS011;1577;49.912;10.924;2023-03-01T12:55:52;84.07;;;14.10;;
3133;SDS011;1577;49.912;10.924;2023-03-01T13:06:32;80.17;;;12.23;;
3133;SDS011;1577;49.912;10.924;2023-03-01T13:09:10;77.27;;;11.00;;
3133;SDS011;1577;49.912;10.924;2023-03-01T13:11:48;81.80;;;11.97;;
3133;SDS011;1577;49.912;10.924;2023-03-01T13:16:47;76.37;;;11.77;;
3133;SDS011;1577;49.912;10.924;2023-03-01T13:19:21;79.97;;;13.47;;
3133;SDS011;1577;49.912;10.924;2023-03-01T13:21:48;78.23;;;12.63;;
3133;SDS011;1577;49.912;10.924;2023-03-01T13:37:44;78.47;;;12.33;;
3133;SDS011;1577;49.912;10.924;2023-03-01T13:45:18;78.80;;;12.20;;
3133;SDS011;1577;49.912;10.924;2023-03-01T13:47:59;73.10;;;10.23;;
3133;SDS011;1577;49.912;10.924;2023-03-01T13:50:36;78.40;;;12.40;;
3133;SDS011;1577;49.912;10.924;2023-03-01T13:53:09;79.70;;;11.93;;
3133;SDS011;1577;49.912;10.924;2023-03-01T13:55:42;78.60;;;13.50;;
3133;SDS011;1577;49.912;10.924;2023-03-01T14:00:56;77.57;;;12.87;;
3133;SDS011;1577;49.912;10.924;2023-03-01T14:03:26;78.33;;;11.80;;
3133;SDS011;1577;49.912;10.924;2023-03-01T14:06:00;72.50;;;8.60;;
3133;SDS011;1577;49.912;10.924;2023-03-01T14:08:33;77.47;;;12.33;;
3133;SDS011;1577;49.912;10.924;2023-03-01T14:19:32;77.43;;;12.70;;
3133;SDS011;1577;49.912;10.924;2023-03-01T14:22:04;79.97;;;12.40;;
3133;SDS011;1577;49.912;10.924;2023-03-01T14:24:52;75.27;;;11.90;;
3133;SDS011;1577;49.912;10.924;2023-03-01T14:27:20;74.20;;;11.27;;
3133;SDS011;1577;49.912;10.924;2023-03-01T14:29:55;78.10;;;13.50;;
3133;SDS011;1577;49.912;10.924;2023-03-01T14:32:31;74.50;;;12.37;;
3133;SDS011;1577;49.912;10.924;2023-03-01T14:34:57;81.50;;;13.93;;
3133;SDS011;1577;49.912;10.924;2023-03-01T14:37:31;76.40;;;13.17;;
3133;SDS011;1577;49.912;10.924;2023-03-01T14:39:59;79.37;;;13.53;;
3133;SDS011;1577;49.912;10.924;2023-03-01T14:42:28;79.80;;;14.43;;
3133;SDS011;1577;49.912;10.924;2023-03-01T14:44:56;79.47;;;14.20;;
3133;SDS011;1577;49.912;10.924;2023-03-01T14:47:34;71.33;;;10.97;;
3133;SDS011;1577;49.912;10.924;2023-03-01T14:50:08;78.50;;;12.90;;
3133;SDS011;1577;49.912;10.924;2023-03-01T14:52:44;77.90;;;13.73;;
3133;SDS011;1577;49.912;10.924;2023-03-01T14:55:15;79.40;;;14.47;;
3133;SDS011;1577;49.912;10.924;2023-03-01T14:57:48;74.60;;;11.87;;
3133;SDS011;1577;49.912;10.924;2023-03-01T15:00:17;78.87;;;13.60;;
3133;SDS011;1577;49.912;10.924;2023-03-01T15:02:51;81.17;;;13.63;;
3133;SDS011;1577;49.912;10.924;2023-03-01T15:05:37;81.60;;;13.53;;
3133;SDS011;1577;49.912;10.924;2023-03-01T15:08:05;78.17;;;12.70;;
3133;SDS011;1577;49.912;10.924;2023-03-01T15:10:34;76.37;;;12.53;;
3133;SDS011;1577;49.912;10.924;2023-03-01T15:13:14;76.07;;;12.70;;
3133;SDS011;1577;49.912;10.924;2023-03-01T15:15:47;77.20;;;13.17;;
3133;SDS011;1577;49.912;10.924;2023-03-01T15:20:50;76.87;;;14.00;;
3133;SDS011;1577;49.912;10.924;2023-03-01T15:23:26;81.03;;;15.20;;
3133;SDS011;1577;49.912;10.924;2023-03-01T15:25:53;78.67;;;14.43;;
3133;SDS011;1577;49.912;10.924;2023-03-01T15:28:27;73.07;;;10.67;;
3133;SDS011;1577;49.912;10.924;2023-03-01T15:31:00;73.47;;;10.83;;
3133;SDS011;1577;49.912;10.924;2023-03-01T15:33:33;76.50;;;11.43;;
3133;SDS011;1577;49.912;10.924;2023-03-01T15:36:01;75.63;;;13.37;;
3133;SDS011;1577;49.912;10.924;2023-03-01T15:38:54;73.77;;;10.10;;
3133;SDS011;1577;49.912;10.924;2023-03-01T15:41:26;76.70;;;12.00;;
3133;SDS011;1577;49.912;10.924;2023-03-01T15:43:56;84.90;;;11.00;;
3133;SDS011;1577;49.912;10.924;2023-03-01T15:46:27;77.57;;;11.30;;
3133;SDS011;1577;49.912;10.924;2023-03-01T15:48:57;77.67;;;12.27;;
3133;SDS011;1577;49.912;10.924;2023-03-01T15:51:29;77.43;;;12.63;;
3133;SDS011;1577;49.912;10.924;2023-03-01T15:53:58;78.17;;;12.03;;
3133;SDS011;1577;49.912;10.924;2023-03-01T15:56:25;77.50;;;11.37;;
3133;SDS011;1577;49.912;10.924;2023-03-01T15:58:51;81.50;;;11.00;;
3133;SDS011;1577;49.912;10.924;2023-03-01T16:01:16;78.03;;;11.20;;
3133;SDS011;1577;49.912;10.924;2023-03-01T16:03:43;77.97;;;11.40;;
3133;SDS011;1577;49.912;10.924;2023-03-01T16:06:10;79.03;;;14.00;;
3133;SDS011;1577;49.912;10.924;2023-03-01T16:08:39;78.50;;;12.03;;
3133;SDS011;1577;49.912;10.924;2023-03-01T16:11:05;81.97;;;14.13;;
3133;SDS011;1577;49.912;10.924;2023-03-01T16:13:39;78.47;;;14.10;;
3133;SDS011;1577;49.912;10.924;2023-03-01T16:16:05;80.13;;;13.03;;
3133;SDS011;1577;49.912;10.924;2023-03-01T16:18:31;82.80;;;14.70;;
3133;SDS011;1577;49.912;10.924;2023-03-01T16:20:56;83.83;;;13.57;;
3133;SDS011;1577;49.912;10.924;2023-03-01T16:23:22;79.50;;;13.60;;
3133;SDS011;1577;49.912;10.924;2023-03-01T16:25:50;80.40;;;13.57;;
3133;SDS011;1577;49.912;10.924;2023-03-01T16:28:15;85.30;;;15.03;;
3133;SDS011;1577;49.912;10.924;2023-03-01T16:30:44;78.83;;;11.70;;
3133;SDS011;1577;49.912;10.924;2023-03-01T16:33:12;81.10;;;14.77;;
3133;SDS011;1577;49.912;10.924;2023-03-01T16:35:39;80.80;;;14.23;;
3133;SDS011;1577;49.912;10.924;2023-03-01T16:38:05;83.40;;;14.00;;
3133;SDS011;1577;49.912;10.924;2023-03-01T16:40:31;81.37;;;13.70;;
3133;SDS011;1577;49.912;10.924;2023-03-01T16:42:57;85.63;;;16.67;;
3133;SDS011;1577;49.912;10.924;2023-03-01T16:45:26;82.00;;;16.67;;
3133;SDS011;1577;49.912;10.924;2023-03-01T16:47:53;82.67;;;17.20;;
3133;SDS011;1577;49.912;10.924;2023-03-01T16:50:19;84.37;;;18.80;;
3133;SDS011;1577;49.912;10.924;2023-03-01T16:52:45;88.77;;;15.03;;
3133;SDS011;1577;49.912;10.924;2023-03-01T16:55:10;86.37;;;15.97;;
3133;SDS011;1577;49.912;10.924;2023-03-01T16:57:37;85.93;;;14.93;;
3133;SDS011;1577;49.912;10.924;2023-03-01T17:00:04;83.97;;;16.33;;
3133;SDS011;1577;49.912;10.924;2023-03-01T17:02:37;86.73;;;16.47;;